createdAt,value
2019-05-29T06:28:25.475Z,15.87
2019-05-29T06:29:25.451Z,16.30
2019-05-29T06:30:25.411Z,16.61
2019-05-29T06:31:27.326Z,16.68
2019-05-29T06:32:25.374Z,16.86
2019-05-29T06:33:25.349Z,16.61
2019-05-29T06:34:25.331Z,16.28
2019-05-29T06:35:25.324Z,16.11
2019-05-29T06:36:25.291Z,16.46
2019-05-29T06:37:26.116Z,16.68
2019-05-29T06:38:25.254Z,16.75
2019-05-29T06:39:25.237Z,16.86
2019-05-29T06:40:25.238Z,16.76
2019-05-29T06:41:25.197Z,16.91
2019-05-29T06:42:25.179Z,17.14
2019-05-29T06:43:25.161Z,17.03
2019-05-29T06:44:25.146Z,16.50
2019-05-29T06:45:25.126Z,16.23
2019-05-29T06:46:25.127Z,16.41
2019-05-29T06:47:25.098Z,16.41
2019-05-29T06:48:41.856Z,16.24
2019-05-29T06:49:25.053Z,15.96
2019-05-29T06:50:25.037Z,16.43
2019-05-29T06:51:25.022Z,16.94
2019-05-29T06:52:25.019Z,17.41
2019-05-29T06:53:25.013Z,17.62
2019-05-29T06:54:24.968Z,17.82
2019-05-29T06:55:24.967Z,17.51
2019-05-29T06:56:24.933Z,17.90
2019-05-29T06:57:25.973Z,18.03
2019-05-29T06:58:24.901Z,18.03
2019-05-29T06:59:24.883Z,18.08
2019-05-29T07:00:34.873Z,17.93
2019-05-29T07:01:24.848Z,18.17
2019-05-29T07:02:24.834Z,18.30
2019-05-29T07:03:24.851Z,18.47
2019-05-29T07:04:24.802Z,18.52
2019-05-29T07:05:24.783Z,18.55
2019-05-29T07:06:24.763Z,18.85
2019-05-29T07:07:24.747Z,18.95
2019-05-29T07:08:38.247Z,18.66
2019-05-29T07:09:24.783Z,18.37
2019-05-29T07:10:24.719Z,18.35
2019-05-29T07:11:24.683Z,18.21
2019-05-29T07:12:24.666Z,18.05
2019-05-29T07:13:24.648Z,18.03
2019-05-29T07:14:24.632Z,17.89
2019-05-29T07:15:24.638Z,17.58
2019-05-29T07:16:42.861Z,18.02
2019-05-29T07:17:24.583Z,18.51
2019-05-29T07:18:24.577Z,18.87
2019-05-29T07:19:38.873Z,19.14
2019-05-29T07:20:24.538Z,18.91
2019-05-29T07:21:24.533Z,18.67
2019-05-29T07:22:24.502Z,18.69
2019-05-29T07:23:24.485Z,18.42
2019-05-29T09:23:44.380Z,16.31
2019-05-29T09:24:44.323Z,16.09
2019-05-29T09:25:44.305Z,16.02
2019-05-29T09:26:46.407Z,15.97
2019-05-29T09:27:44.267Z,16.02
2019-05-29T09:28:44.246Z,16.00
2019-05-29T09:29:44.240Z,16.07
2019-05-29T09:30:44.209Z,16.05
2019-05-29T09:31:45.063Z,16.21
2019-05-29T09:32:51.458Z,16.25
2019-05-29T09:33:44.157Z,16.42
2019-05-29T09:34:47.479Z,16.57
2019-05-29T09:35:44.126Z,16.48
2019-05-29T09:36:44.103Z,16.45
2019-05-29T09:37:44.088Z,16.57
2019-05-29T09:38:44.076Z,16.71
2019-05-29T09:39:44.072Z,16.79
2019-05-29T09:40:44.036Z,16.68
2019-05-29T09:41:44.042Z,16.81
2019-05-29T09:42:44.004Z,16.49
2019-05-29T09:43:58.181Z,16.48
2019-05-29T09:44:43.970Z,16.46
2019-05-29T09:45:43.966Z,16.39
2019-05-29T09:46:43.944Z,16.39
2019-05-29T09:47:43.926Z,16.52
2019-05-29T09:48:49.623Z,16.53
2019-05-29T09:49:43.889Z,16.58
2019-05-29T09:50:49.927Z,16.67
2019-05-29T09:51:43.855Z,16.75
2019-05-29T09:52:43.838Z,16.88
2019-05-29T09:53:43.831Z,16.73
2019-05-29T10:42:45.118Z,18.25
2019-05-29T10:43:44.998Z,18.41
2019-05-29T10:44:44.878Z,18.51
2019-05-29T10:45:45.641Z,18.48
2019-05-29T10:46:46.122Z,18.41
2019-05-29T10:47:43.858Z,18.33
2019-05-29T10:48:45.411Z,18.26
2019-05-29T10:49:43.824Z,18.25
2019-05-29T10:50:47.756Z,18.37
2019-05-29T10:52:02.185Z,18.47
2019-05-29T10:52:43.804Z,18.69
2019-05-29T10:53:44.299Z,18.70
2019-05-29T10:54:44.077Z,19.10
2019-05-29T10:55:44.446Z,19.54
2019-05-29T10:56:44.718Z,20.08
2019-05-29T10:57:44.722Z,20.69
2019-05-29T10:58:49.745Z,21.07
2019-05-29T10:59:44.621Z,21.03
2019-05-29T11:00:45.276Z,21.43
2019-05-29T11:01:44.969Z,21.77
2019-05-29T11:02:43.627Z,21.65
2019-05-29T11:03:43.607Z,21.74
2019-05-29T11:04:47.572Z,22.06
2019-05-29T11:05:43.576Z,22.07
2019-05-29T11:06:43.572Z,21.69
2019-05-29T11:07:43.548Z,21.50
2019-05-29T11:08:43.538Z,21.28
2019-05-29T11:09:45.006Z,21.82
2019-05-29T11:10:43.506Z,21.98
2019-05-29T11:11:43.493Z,22.27
2019-05-29T11:12:43.484Z,22.28
2019-05-29T11:13:43.461Z,21.84
2019-05-29T11:14:43.447Z,22.33
2019-05-29T11:15:43.468Z,22.45
2019-05-29T11:16:43.419Z,22.31
2019-05-29T11:17:43.409Z,21.79
2019-05-29T11:18:43.391Z,22.21
2019-05-29T11:19:43.387Z,22.57
2019-05-29T11:20:43.363Z,22.88
2019-05-29T11:21:43.369Z,22.73
2019-05-29T11:22:43.335Z,21.99
2019-05-29T11:23:43.319Z,21.52
2019-05-29T11:24:43.326Z,21.84
2019-05-29T11:25:43.290Z,21.82
2019-05-29T11:26:43.297Z,21.92
2019-05-29T11:27:43.268Z,21.69
2019-05-29T11:28:43.251Z,21.44
2019-05-29T11:29:43.241Z,21.53
2019-05-29T11:30:43.289Z,21.86
2019-05-29T11:31:43.230Z,22.35
2019-05-29T11:32:47.151Z,22.75
2019-05-29T11:33:43.181Z,22.76
2019-05-29T11:34:43.169Z,23.50
2019-05-29T11:35:57.319Z,24.02
2019-05-29T11:36:43.143Z,24.25
2019-05-29T11:37:43.126Z,23.46
2019-05-29T11:38:43.127Z,23.04
2019-05-29T11:39:43.100Z,23.00
2019-05-29T11:40:43.430Z,23.10
2019-05-29T11:41:43.069Z,22.95
2019-05-29T11:42:43.056Z,22.80
2019-05-29T11:43:43.062Z,22.83
2019-05-29T11:44:43.034Z,23.35
2019-05-29T11:45:43.021Z,22.35
2019-05-29T11:46:43.006Z,22.58
2019-05-29T11:47:42.991Z,22.82
2019-05-29T11:48:43.016Z,23.01
2019-05-29T11:49:42.962Z,22.65
2019-05-29T11:50:42.952Z,22.72
2019-05-29T11:51:44.367Z,22.80
2019-05-29T11:52:43.566Z,23.32
2019-05-29T11:53:42.917Z,23.22
2019-05-29T11:54:42.909Z,22.76
2019-05-29T11:55:42.886Z,23.28
2019-05-29T11:56:42.868Z,23.20
2019-05-29T11:57:42.855Z,23.13
2019-05-29T11:58:42.842Z,23.36
2019-05-29T11:59:42.847Z,24.03
2019-05-29T12:00:42.818Z,23.20
2019-05-29T12:01:50.307Z,23.46
2019-05-29T12:02:42.791Z,24.12
2019-05-29T12:04:09.483Z,23.65
2019-05-29T12:04:42.779Z,22.83
2019-05-29T12:05:42.749Z,22.22
2019-05-29T12:06:42.744Z,21.50
2019-05-29T12:07:42.723Z,22.43
2019-05-29T12:08:42.718Z,23.13
2019-05-29T12:09:42.785Z,24.02
2019-05-29T12:10:42.700Z,24.09
2019-05-29T12:11:42.675Z,24.45
2019-05-29T12:12:42.658Z,23.98
2019-05-29T12:13:42.642Z,23.69
2019-05-29T12:14:59.009Z,23.16
2019-05-29T12:15:42.630Z,23.01
2019-05-29T12:16:42.604Z,23.80
2019-05-29T12:17:42.595Z,23.00
2019-05-29T12:18:42.578Z,23.46
2019-05-29T12:19:42.745Z,23.05
2019-05-29T12:20:42.566Z,23.48
2019-05-29T12:21:42.992Z,23.78
2019-05-29T12:23:07.222Z,23.70
2019-05-29T12:23:42.511Z,23.54
2019-05-29T12:24:42.498Z,23.95
2019-05-29T12:25:42.501Z,24.22
2019-05-29T12:26:42.474Z,24.31
2019-05-29T12:27:42.459Z,24.40
2019-05-29T12:28:42.444Z,24.91
2019-05-29T12:29:42.438Z,24.49
2019-05-29T12:30:42.433Z,24.95
2019-05-29T12:31:42.424Z,24.91
2019-05-29T12:32:42.396Z,23.98
2019-05-29T12:33:42.382Z,23.63
2019-05-29T12:34:53.181Z,23.73
2019-05-29T12:35:42.358Z,23.88
2019-05-29T12:36:42.342Z,23.97
2019-05-29T12:37:42.343Z,23.35
2019-05-29T12:38:42.319Z,22.43
2019-05-29T12:39:42.306Z,22.57
2019-05-29T12:40:42.292Z,22.70
2019-05-29T12:41:42.283Z,22.62
2019-05-29T12:42:45.006Z,23.15
2019-05-29T12:43:42.258Z,22.98
2019-05-29T12:44:42.250Z,23.36
2019-05-29T12:45:42.233Z,23.90
2019-05-29T12:46:42.217Z,24.45
2019-05-29T12:47:42.229Z,24.49
2019-05-29T12:48:42.203Z,25.30
2019-05-29T12:49:42.177Z,25.47
2019-05-29T12:50:42.166Z,25.91
2019-05-29T12:51:42.152Z,25.77
2019-05-29T12:52:42.140Z,25.33
2019-05-29T12:53:42.159Z,24.77
2019-05-29T12:54:42.125Z,24.83
2019-05-29T12:55:42.106Z,25.08
2019-05-29T12:56:42.094Z,25.45
2019-05-29T12:57:42.082Z,25.47
2019-05-29T12:58:42.069Z,25.70
2019-05-29T12:59:42.075Z,25.33
2019-05-29T13:00:42.051Z,25.14
2019-05-29T13:01:42.037Z,25.35
2019-05-29T13:02:42.027Z,25.80
2019-05-29T13:03:45.292Z,25.51
2019-05-29T13:05:06.200Z,25.30
2019-05-29T13:05:41.990Z,25.13
2019-05-29T13:06:41.981Z,25.61
2019-05-29T13:07:41.975Z,26.23
2019-05-29T13:08:41.959Z,26.65
2019-05-29T13:09:41.948Z,27.06
2019-05-29T13:10:41.957Z,26.88
2019-05-29T13:11:41.928Z,25.94
2019-05-29T13:12:42.451Z,26.40
2019-05-29T13:13:41.907Z,27.21
2019-05-29T13:14:41.914Z,27.32
2019-05-29T13:15:41.887Z,27.75
2019-05-29T13:16:41.892Z,27.85
2019-05-29T13:17:41.868Z,27.87
2019-05-29T13:18:41.858Z,26.65
2019-05-29T13:19:41.936Z,26.47
2019-05-29T13:20:41.855Z,27.34
2019-05-29T13:21:41.828Z,27.10
2019-05-29T13:22:41.821Z,27.27
2019-05-29T13:23:45.105Z,27.66
2019-05-29T13:24:41.804Z,28.00
2019-05-29T13:25:41.850Z,26.97
2019-05-29T13:26:41.798Z,27.51
2019-05-29T13:27:41.777Z,27.28
2019-05-29T13:28:41.765Z,26.48
2019-05-29T13:29:41.757Z,27.03
2019-05-29T13:30:41.748Z,27.54
2019-05-29T13:31:41.755Z,27.99
2019-05-29T13:32:42.139Z,27.87
2019-05-29T13:33:41.724Z,26.26
2019-05-29T13:34:41.716Z,26.07
2019-05-29T13:35:41.711Z,25.00
2019-05-29T13:36:41.728Z,25.42
2019-05-29T13:37:41.690Z,25.82
2019-05-29T13:38:41.682Z,25.43
2019-05-29T13:39:41.675Z,25.32
2019-05-29T13:40:41.668Z,26.13
2019-05-29T13:41:41.664Z,26.54
2019-05-29T13:42:41.667Z,27.06
2019-05-29T13:43:41.647Z,27.70
2019-05-29T13:44:41.756Z,26.92
2019-05-29T13:45:41.629Z,26.65
2019-05-29T13:46:41.657Z,27.17
2019-05-29T13:47:41.634Z,25.17
2019-05-29T13:48:41.644Z,25.52
2019-05-29T13:49:41.597Z,25.95
2019-05-29T13:50:41.591Z,26.81
2019-05-29T13:51:41.679Z,27.25
2019-05-29T13:52:41.576Z,27.18
2019-05-29T13:53:41.570Z,27.28
2019-05-29T13:54:41.561Z,27.19
2019-05-29T13:55:41.560Z,26.07
2019-05-29T13:56:41.570Z,25.79
2019-05-29T13:57:41.540Z,26.63
2019-05-29T13:58:41.534Z,27.43
2019-05-29T13:59:41.527Z,27.74
2019-05-29T14:00:41.521Z,28.15
2019-05-29T14:01:41.513Z,28.40
2019-05-29T14:02:41.525Z,27.49
2019-05-29T14:03:41.511Z,26.40
2019-05-29T14:04:41.495Z,26.05
2019-05-29T14:05:41.488Z,26.01
2019-05-29T14:06:41.479Z,26.92
2019-05-29T14:07:41.476Z,27.40
2019-05-29T14:08:41.486Z,28.09
2019-05-29T14:09:41.461Z,29.00
2019-05-29T14:10:41.464Z,29.18
2019-05-29T14:11:41.458Z,28.90
2019-05-29T14:12:41.442Z,28.98
2019-05-29T14:13:41.452Z,29.65
2019-05-29T14:14:41.431Z,29.19
2019-05-29T14:15:41.425Z,29.39
2019-05-29T14:16:41.418Z,28.66
2019-05-29T14:17:41.423Z,28.36
2019-05-29T14:18:41.454Z,28.85
2019-05-29T14:19:41.409Z,28.66
2019-05-29T14:20:41.398Z,29.09
2019-05-29T14:21:41.391Z,28.98
2019-05-29T14:22:41.384Z,29.00
2019-05-29T14:23:41.396Z,28.44
2019-05-29T14:24:41.378Z,28.15
2019-05-29T14:25:41.370Z,27.39
2019-05-29T14:26:41.369Z,27.75
2019-05-29T14:27:41.396Z,27.55
2019-05-29T14:28:41.373Z,28.30
2019-05-29T14:29:41.351Z,28.41
2019-05-29T14:30:41.345Z,28.85
2019-05-29T14:31:41.339Z,28.59
2019-05-29T14:32:41.339Z,28.17
2019-05-29T14:33:41.335Z,28.62
2019-05-29T14:34:41.342Z,29.37
2019-05-29T14:35:41.320Z,29.12
2019-05-29T14:36:41.327Z,28.12
2019-05-29T14:37:41.323Z,27.24
2019-05-29T14:38:41.306Z,26.60
2019-05-29T14:39:41.304Z,26.94
2019-05-29T14:40:41.313Z,27.39
2019-05-29T14:41:41.297Z,26.99
2019-05-29T14:42:41.365Z,26.87
2019-05-29T14:43:41.283Z,27.39
2019-05-29T14:44:41.279Z,26.82
2019-05-29T14:45:41.292Z,27.65
2019-05-29T14:46:41.271Z,28.22
2019-05-29T14:47:41.269Z,28.37
2019-05-29T14:48:41.262Z,28.27
2019-05-29T14:49:41.257Z,28.34
2019-05-29T14:50:41.256Z,28.80
2019-05-29T14:51:41.368Z,29.11
2019-05-29T14:52:41.265Z,29.34
2019-05-29T14:53:41.270Z,28.74
2019-05-29T14:54:42.653Z,29.39
2019-05-29T14:55:41.234Z,29.63
2019-05-29T14:56:41.332Z,29.55
2019-05-29T14:57:41.236Z,29.90
2019-05-29T14:58:41.222Z,28.93
2019-05-29T14:59:41.251Z,28.74
2019-05-29T15:00:41.214Z,29.05
2019-05-29T15:01:41.239Z,29.09
2019-05-29T15:02:41.208Z,28.31
2019-05-29T15:03:41.206Z,28.24
2019-05-29T15:04:41.201Z,27.77
2019-05-29T15:05:41.201Z,28.29
2019-05-29T15:06:41.196Z,27.21
2019-05-29T15:07:41.209Z,27.81
2019-05-29T15:08:41.195Z,26.02
2019-05-29T15:09:41.186Z,26.25
2019-05-29T15:10:41.185Z,27.07
2019-05-29T15:11:41.177Z,27.62
2019-05-29T15:12:41.213Z,28.21
2019-05-29T15:13:41.174Z,28.83
2019-05-29T15:14:41.170Z,28.95
2019-05-29T15:15:41.169Z,28.43
2019-05-29T15:16:41.165Z,28.67
2019-05-29T15:17:41.163Z,28.62
2019-05-29T15:18:41.175Z,29.51
2019-05-29T15:19:41.155Z,29.49
2019-05-29T15:20:41.154Z,29.79
2019-05-29T15:21:41.150Z,30.01
2019-05-29T15:22:41.163Z,27.85
2019-05-29T15:23:41.145Z,27.18
2019-05-29T15:24:56.169Z,26.80
2019-05-29T15:25:41.144Z,26.36
2019-05-29T15:26:41.147Z,26.39
2019-05-29T15:27:41.144Z,25.69
2019-05-29T15:28:41.144Z,26.26
2019-05-29T15:29:41.127Z,26.67
2019-05-29T15:30:41.135Z,26.05
2019-05-29T15:31:41.127Z,26.01
2019-05-29T15:32:41.276Z,25.08
2019-05-29T15:33:41.119Z,25.91
2019-05-29T15:34:41.121Z,26.54
2019-05-29T15:35:41.114Z,26.67
2019-05-29T15:36:41.111Z,27.12
2019-05-29T15:37:41.109Z,26.52
2019-05-29T15:38:41.123Z,26.73
2019-05-29T15:39:41.104Z,27.03
2019-05-29T15:40:41.106Z,27.39
2019-05-29T15:41:41.103Z,27.62
2019-05-29T15:42:41.100Z,27.60
2019-05-29T15:43:41.106Z,27.57
2019-05-29T15:44:41.089Z,26.88
2019-05-29T15:45:41.086Z,27.02
2019-05-29T15:46:41.086Z,27.62
2019-05-29T15:47:41.085Z,28.58
2019-05-29T15:48:41.098Z,28.66
2019-05-29T15:49:41.077Z,28.70
2019-05-29T15:50:41.077Z,27.14
2019-05-29T15:51:41.074Z,25.92
2019-05-29T15:52:41.072Z,24.64
2019-05-29T15:53:41.069Z,24.52
2019-05-29T15:54:41.080Z,25.79
2019-05-29T15:55:41.064Z,26.26
2019-05-29T15:56:41.061Z,26.82
2019-05-29T15:57:41.069Z,27.14
2019-05-29T15:58:41.062Z,27.54
2019-05-29T15:59:41.091Z,28.37
2019-05-29T16:00:41.058Z,28.70
2019-05-29T16:01:41.048Z,28.51
2019-05-29T16:02:41.047Z,27.99
2019-05-29T16:03:41.041Z,27.81
2019-05-29T16:04:41.041Z,28.27
2019-05-29T16:05:41.053Z,28.62
2019-05-29T16:06:41.038Z,28.92
2019-05-29T16:07:41.035Z,29.14
2019-05-29T16:08:41.030Z,29.08
2019-05-29T16:09:41.046Z,28.71
2019-05-29T16:10:41.030Z,27.97
2019-05-29T16:11:41.029Z,27.67
2019-05-29T16:12:41.022Z,27.10
2019-05-29T16:13:41.024Z,27.22
2019-05-29T16:14:41.023Z,27.07
2019-05-29T16:15:41.031Z,27.81
2019-05-29T16:16:41.018Z,25.70
2019-05-29T16:17:41.009Z,25.54
2019-05-29T16:18:41.006Z,26.33
2019-05-29T16:19:41.004Z,25.65
2019-05-29T16:20:41.018Z,24.10
2019-05-29T16:21:40.997Z,24.65
2019-05-29T16:22:41.013Z,25.94
2019-05-29T16:23:40.994Z,25.47
2019-05-29T16:24:40.989Z,25.43
2019-05-29T16:25:40.987Z,25.62
2019-05-29T16:26:41.001Z,25.58
2019-05-29T16:27:40.980Z,25.42
2019-05-29T16:28:40.976Z,25.88
2019-05-29T16:29:40.988Z,26.70
2019-05-29T16:30:40.970Z,26.51
2019-05-29T16:31:40.981Z,25.92
2019-05-29T16:32:40.970Z,25.32
2019-05-29T16:33:40.977Z,25.94
2019-05-29T16:34:40.960Z,26.37
2019-05-29T16:35:40.958Z,24.78
2019-05-29T16:36:40.970Z,25.05
2019-05-29T16:37:40.950Z,25.32
2019-05-29T16:38:40.945Z,24.52
2019-05-29T16:39:40.945Z,24.50
2019-05-29T16:40:40.939Z,24.91
2019-05-29T16:41:40.938Z,25.25
2019-05-29T16:42:40.950Z,26.45
2019-05-29T16:43:40.942Z,27.18
2019-05-29T16:44:40.933Z,27.70
2019-05-29T16:45:40.922Z,26.84
2019-05-29T16:46:40.920Z,25.79
2019-05-29T16:47:40.936Z,26.43
2019-05-29T16:48:40.913Z,26.72
2019-05-29T16:49:40.916Z,27.40
2019-05-29T16:50:48.767Z,26.92
2019-05-29T16:51:42.124Z,26.40
2019-05-29T16:52:40.899Z,25.69
2019-05-29T16:53:40.909Z,25.92
2019-05-29T16:54:40.929Z,26.10
2019-05-29T16:55:52.968Z,26.52
2019-05-29T16:56:40.884Z,26.51
2019-05-29T16:57:40.877Z,25.80
2019-05-29T16:58:40.891Z,26.43
2019-05-29T16:59:40.874Z,26.10
2019-05-29T17:00:40.874Z,26.35
2019-05-29T17:01:40.875Z,26.91
2019-05-29T17:02:40.859Z,27.28
2019-05-29T17:03:40.875Z,27.31
2019-05-29T17:04:40.855Z,27.77
2019-05-29T17:05:40.848Z,27.60
2019-05-29T17:06:40.851Z,26.47
2019-05-29T17:07:40.845Z,26.48
2019-05-29T17:08:40.839Z,25.67
2019-05-29T17:09:40.847Z,26.40
2019-05-29T17:10:40.836Z,25.82
2019-05-29T17:11:40.828Z,24.37
2019-05-29T17:12:40.824Z,24.65
2019-05-29T17:13:40.821Z,25.02
2019-05-29T17:14:40.835Z,25.38
2019-05-29T17:15:40.812Z,25.94
2019-05-29T17:16:40.807Z,26.52
2019-05-29T17:17:40.803Z,25.83
2019-05-29T17:18:40.800Z,26.26
2019-05-29T17:19:40.810Z,25.67
2019-05-29T17:20:40.790Z,24.61
2019-05-29T17:21:40.808Z,25.30
2019-05-29T17:22:40.784Z,25.73
2019-05-29T17:23:40.778Z,26.13
2019-05-29T17:24:40.791Z,25.24
2019-05-29T17:25:40.785Z,24.49
2019-05-29T17:26:40.762Z,24.64
2019-05-29T17:27:40.767Z,25.15
2019-05-29T17:28:40.760Z,25.47
2019-05-29T17:29:40.756Z,25.72
2019-05-29T17:30:40.761Z,25.80
2019-05-29T17:31:40.743Z,25.46
2019-05-29T17:32:40.734Z,25.32
2019-05-29T17:33:40.729Z,25.18
2019-05-29T17:34:40.725Z,24.95
2019-05-29T17:35:40.766Z,24.61
2019-05-29T17:36:40.711Z,24.03
2019-05-29T17:37:40.710Z,22.85
2019-05-29T17:38:40.861Z,22.14
2019-05-29T17:39:40.697Z,23.15
2019-05-29T17:40:40.694Z,23.15
2019-05-29T17:41:40.699Z,24.08
2019-05-29T17:42:40.677Z,24.30
2019-05-29T17:43:40.674Z,24.55
2019-05-29T17:44:40.665Z,24.15
2019-05-29T17:45:40.659Z,23.60
2019-05-29T17:46:40.685Z,23.90
2019-05-29T17:47:40.648Z,23.76
2019-05-29T17:48:40.650Z,23.66
2019-05-29T17:49:40.637Z,23.33
2019-05-29T17:50:40.629Z,23.13
2019-05-29T17:51:40.640Z,22.98
2019-05-29T17:52:40.616Z,22.70
2019-05-29T17:53:40.620Z,22.57
2019-05-29T17:54:40.605Z,22.37
2019-05-29T17:55:40.598Z,22.21
2019-05-29T17:56:40.611Z,22.05
2019-05-29T17:57:40.578Z,21.92
2019-05-29T17:58:40.571Z,21.71
2019-05-29T17:59:40.562Z,21.68
2019-05-29T18:00:40.553Z,21.59
2019-05-29T18:01:40.546Z,21.65
2019-05-29T18:02:51.436Z,21.50
2019-05-29T18:03:40.528Z,21.43
2019-05-29T18:04:40.517Z,21.19
2019-05-29T18:05:40.511Z,21.19
2019-05-29T18:06:40.504Z,21.07
2019-05-29T18:07:40.494Z,21.07
2019-05-29T18:08:40.495Z,21.04
2019-05-29T18:09:40.473Z,21.13
2019-05-29T18:10:40.464Z,21.24
2019-05-29T18:11:40.455Z,21.22
2019-05-29T18:12:40.439Z,21.24
2019-05-29T18:13:40.444Z,20.98
2019-05-29T18:14:40.419Z,20.77
2019-05-29T18:15:40.411Z,20.50
2019-05-29T18:16:40.399Z,20.24
2019-05-29T18:17:43.585Z,20.36
2019-05-29T18:18:40.394Z,20.28
2019-05-29T18:19:40.390Z,20.26
2019-05-29T18:20:40.354Z,20.17
2019-05-29T18:21:40.343Z,20.14
2019-05-29T18:22:40.329Z,20.01
2019-05-29T18:23:40.319Z,19.95
2019-05-29T18:24:40.326Z,19.95
2019-05-29T18:25:40.295Z,19.91
2019-05-29T18:26:46.958Z,19.77
2019-05-29T18:27:40.273Z,19.56
2019-05-29T18:28:40.260Z,19.50
2019-05-29T18:29:40.245Z,19.43
2019-05-29T18:30:40.248Z,19.44
2019-05-29T18:31:40.223Z,19.33
2019-05-29T18:32:40.222Z,19.32
2019-05-29T18:33:40.216Z,19.36
2019-05-29T18:34:40.185Z,19.26
2019-05-29T18:35:40.191Z,19.07
2019-05-29T18:36:40.169Z,19.07
2019-05-29T18:37:40.147Z,19.13
2019-05-29T18:38:40.132Z,18.98
2019-05-29T18:39:40.120Z,18.87
2019-05-29T18:40:40.105Z,18.72
2019-05-29T18:41:40.105Z,18.78
2019-05-29T18:42:40.086Z,18.80
2019-05-29T18:43:40.065Z,18.66
2019-05-29T18:44:40.051Z,18.67
2019-05-29T18:45:40.041Z,18.60
2019-05-29T18:46:40.040Z,18.57
2019-05-29T18:47:40.013Z,18.58
2019-05-29T18:48:39.997Z,18.51
2019-05-29T18:49:39.984Z,18.50
2019-05-29T18:50:44.015Z,18.48
2019-05-29T18:51:39.975Z,18.37
2019-05-29T18:52:39.943Z,18.41
2019-05-29T18:53:39.930Z,18.25
2019-05-29T18:54:39.918Z,18.27
2019-05-29T18:55:39.902Z,18.20
2019-05-29T18:56:39.890Z,18.12
2019-05-29T18:57:39.892Z,18.02
2019-05-29T18:58:39.862Z,17.95
2019-05-29T18:59:39.845Z,17.77
2019-05-29T19:00:39.831Z,17.68
2019-05-29T19:01:39.821Z,17.58
2019-05-29T19:02:39.839Z,17.48
2019-05-29T19:03:40.664Z,17.26
2019-05-29T19:04:39.785Z,17.38
2019-05-29T19:05:39.761Z,17.21
2019-05-29T19:06:39.744Z,16.98
2019-05-29T19:07:39.733Z,16.97
2019-05-29T19:08:39.729Z,16.83
2019-05-29T19:09:39.702Z,16.85
2019-05-29T19:10:39.685Z,16.85
2019-05-29T19:11:39.680Z,16.93
2019-05-29T19:12:39.655Z,16.79
2019-05-29T19:13:39.663Z,16.83
2019-05-29T19:14:39.627Z,16.85
2019-05-29T19:15:39.612Z,16.82
2019-05-29T19:16:39.799Z,16.82
2019-05-29T19:17:39.587Z,16.79
2019-05-29T19:18:39.568Z,16.70
2019-05-29T19:19:39.570Z,16.64
2019-05-29T19:20:39.540Z,16.73
2019-05-29T19:21:39.520Z,16.66
2019-05-29T19:22:39.507Z,16.57
2019-05-29T19:23:39.493Z,16.64
2019-05-29T19:24:39.488Z,16.61
2019-05-29T19:25:39.464Z,16.64
2019-05-29T19:26:39.446Z,16.43
2019-05-29T19:27:42.140Z,16.39
2019-05-29T19:28:39.413Z,16.25
2019-05-29T19:29:39.436Z,16.14
2019-05-29T19:30:39.384Z,16.04
2019-05-29T19:31:42.492Z,15.87
2019-05-29T19:32:39.351Z,15.74
2019-05-29T19:33:39.338Z,15.60
2019-05-29T19:34:39.319Z,15.49
2019-05-29T19:35:39.326Z,15.46
2019-05-29T19:36:39.289Z,15.50
2019-05-29T19:37:39.278Z,15.49
2019-05-29T19:38:39.272Z,15.51
2019-05-29T19:39:39.243Z,15.60
2019-05-29T19:40:39.222Z,15.62
2019-05-29T19:41:39.224Z,15.68
2019-05-29T19:42:39.199Z,15.65
2019-05-29T19:43:39.177Z,15.64
2019-05-29T19:44:39.164Z,15.60
2019-05-29T19:45:39.151Z,15.59
2019-05-29T19:46:53.300Z,15.65
2019-05-29T19:47:39.117Z,15.56
2019-05-29T19:48:39.103Z,15.56
2019-05-29T19:49:39.089Z,15.49
2019-05-29T19:50:39.075Z,15.54
2019-05-29T19:51:39.078Z,15.51
2019-05-29T19:52:39.033Z,15.44
2019-05-29T19:53:39.019Z,15.50
2019-05-29T19:54:39.003Z,15.53
2019-05-29T19:55:38.990Z,15.39
2019-05-29T19:56:38.968Z,15.32
2019-05-29T19:57:54.734Z,15.35
2019-05-29T19:58:38.938Z,15.44
2019-05-29T19:59:38.922Z,15.39
2019-05-29T20:00:38.904Z,15.38
2019-05-29T20:01:40.442Z,15.34
2019-05-29T20:02:38.870Z,15.49
2019-05-29T20:03:38.872Z,15.49
2019-05-29T20:04:38.841Z,15.49
2019-05-29T20:05:38.822Z,15.54
2019-05-29T20:06:38.810Z,15.54
2019-05-29T20:07:38.788Z,15.49
2019-05-29T20:08:39.696Z,15.51
2019-05-29T20:09:38.763Z,15.56
2019-05-29T20:10:38.747Z,15.49
2019-05-29T20:11:38.725Z,15.46
2019-05-29T20:12:38.710Z,15.51
2019-05-29T20:13:38.707Z,15.51
2019-05-29T20:14:38.674Z,15.47
2019-05-29T20:15:38.659Z,15.50
2019-05-29T20:16:39.306Z,15.51
2019-05-29T20:17:38.720Z,15.50
2019-05-29T20:18:38.637Z,15.44
2019-05-29T20:19:40.897Z,15.32
2019-05-29T20:20:38.764Z,15.32
2019-05-29T20:21:38.937Z,15.34
2019-05-29T20:22:39.117Z,15.32
2019-05-29T20:23:38.864Z,15.32
2019-05-29T20:24:39.057Z,15.28
2019-05-29T20:25:39.070Z,15.28
2019-05-29T20:26:39.402Z,15.23
2019-05-29T20:27:38.667Z,15.21
2019-05-29T20:28:38.497Z,15.17
2019-05-29T20:29:38.577Z,15.19
2019-05-29T20:30:38.765Z,15.16
2019-05-29T20:31:38.748Z,15.09
2019-05-29T20:32:38.956Z,14.99
2019-05-29T20:33:38.658Z,14.86
2019-05-29T20:34:39.024Z,14.94
2019-05-29T20:35:39.150Z,14.89
2019-05-29T20:36:39.653Z,14.75
2019-05-29T20:37:38.503Z,14.72
2019-05-29T20:38:39.324Z,14.72
2019-05-29T20:39:38.515Z,14.70
2019-05-29T20:40:39.331Z,14.57
2019-05-29T20:41:41.369Z,14.52
2019-05-29T20:42:38.557Z,14.50
2019-05-29T20:43:38.473Z,14.47
2019-05-29T20:44:38.718Z,14.35
2019-05-29T20:45:38.158Z,14.40
2019-05-29T20:46:38.646Z,14.37
2019-05-29T20:47:38.160Z,14.24
2019-05-29T20:48:38.771Z,14.21
2019-05-29T20:49:38.116Z,14.28
2019-05-29T20:50:39.177Z,14.24
2019-05-29T20:51:38.317Z,14.10
2019-05-29T20:52:39.277Z,14.14
2019-05-29T20:53:38.023Z,14.06
2019-05-29T20:54:38.014Z,14.03
2019-05-29T20:55:38.008Z,14.07
2019-05-29T20:56:38.003Z,14.06
2019-05-29T20:57:38.149Z,13.97
2019-05-29T20:58:37.934Z,13.88
2019-05-29T20:59:38.178Z,13.91
2019-05-29T21:00:38.390Z,13.89
2019-05-29T21:01:42.980Z,13.96
2019-05-29T21:02:38.149Z,13.92
2019-05-29T21:03:38.650Z,13.85
2019-05-29T21:04:38.509Z,13.88
2019-05-29T21:05:38.666Z,13.91
2019-05-29T21:06:38.631Z,13.87
2019-05-29T21:07:38.826Z,13.84
2019-05-29T21:08:38.756Z,13.67
2019-05-29T21:09:39.096Z,13.75
2019-05-29T21:10:37.725Z,13.64
2019-05-29T21:11:37.714Z,13.66
2019-05-29T21:12:42.461Z,13.63
2019-05-29T21:13:37.675Z,13.62
2019-05-29T21:14:37.656Z,13.66
2019-05-29T21:15:37.646Z,13.57
2019-05-29T21:16:37.699Z,13.57
2019-05-29T21:17:37.952Z,13.51
2019-05-29T21:18:37.920Z,13.55
2019-05-29T21:19:38.207Z,13.59
2019-05-29T21:20:38.319Z,13.48
2019-05-29T21:21:38.312Z,13.45
2019-05-29T21:22:38.589Z,13.39
2019-05-29T21:23:38.328Z,13.46
2019-05-29T21:24:38.570Z,13.39
2019-05-29T21:25:38.498Z,13.49
2019-05-29T21:26:37.446Z,13.38
2019-05-29T21:27:39.409Z,13.41
2019-05-29T21:28:44.424Z,13.30
2019-05-29T21:29:37.393Z,13.33
2019-05-29T21:30:37.493Z,13.25
2019-05-29T21:31:37.611Z,13.23
2019-05-29T21:32:37.866Z,13.23
2019-05-29T21:33:38.071Z,13.14
2019-05-29T21:34:37.847Z,13.19
2019-05-29T21:35:37.989Z,13.12
2019-05-29T21:36:37.961Z,13.10
2019-05-29T21:37:38.227Z,13.10
2019-05-29T21:38:38.044Z,13.07
2019-05-29T21:39:38.325Z,12.89
2019-05-29T21:40:38.239Z,13.01
2019-05-29T21:41:38.316Z,13.03
2019-05-29T21:42:38.418Z,13.00
2019-05-29T21:43:38.549Z,13.03
2019-05-29T21:44:37.128Z,13.01
2019-05-29T21:45:37.130Z,13.04
2019-05-29T21:46:37.092Z,12.96
2019-05-29T21:47:37.276Z,13.00
2019-05-29T21:48:37.061Z,12.85
2019-05-29T21:49:37.288Z,12.87
2019-05-29T21:50:37.185Z,12.78
2019-05-29T21:51:37.379Z,12.71
2019-05-29T21:52:37.510Z,12.83
2019-05-29T21:53:37.267Z,12.77
2019-05-29T21:54:37.309Z,12.83
2019-05-29T21:55:37.558Z,12.71
2019-05-29T21:56:37.512Z,12.78
2019-05-29T21:57:37.785Z,12.90
2019-05-29T21:58:37.546Z,12.78
2019-05-29T21:59:37.677Z,12.85
2019-05-29T22:00:37.913Z,12.83
2019-05-29T22:01:37.933Z,12.83
2019-05-29T22:02:38.145Z,12.79
2019-05-29T22:03:38.221Z,12.79
2019-05-29T22:04:38.262Z,12.79
2019-05-29T22:05:36.752Z,12.78
2019-05-29T22:06:36.727Z,12.78
2019-05-29T22:07:36.737Z,12.68